Time;durP1;ratioP1;P1;durP2;ratioP2;P2;SDS_P1;SDS_P2;PMS_P1;PMS_P2;Temp;Humidity;BMP_temperature;BMP_pressure;BME280_temperature;BME280_humidity;BME280_pressure;Samples;Min_cycle;Max_cycle;Signal;HPM_P1;HPM_P2
2021/12/08 00:02:01;;;;;;;2.60;2.40;;;2.30;99.90;;;;;;4928522;29;20420;-80
2021/12/08 00:05:07;;;;;;;2.80;2.53;;;2.40;99.90;;;;;;4925237;29;20383;-79
2021/12/08 00:08:03;;;;;;;5.07;2.23;;;2.40;99.90;;;;;;4925667;29;20391;-80
2021/12/08 00:13:01;;;;;;;2.57;2.30;;;2.40;99.90;;;;;;4924545;29;20452;-79
2021/12/08 00:13:47;;;;;;;4.33;3.10;;;2.50;99.90;;;;;;4924243;29;20443;-79
2021/12/08 00:19:47;;;;;;;2.17;1.97;;;2.60;99.90;;;;;;4912910;29;20448;-79
2021/12/08 00:25:12;;;;;;;1.97;1.83;;;2.30;99.90;;;;;;4999132;28;20370;-80
2021/12/08 00:36:50;;;;;;;4.90;2.10;;;1.90;99.90;;;;;;5005961;28;20412;-79
2021/12/08 00:40:01;;;;;;;2.73;2.47;;;1.80;99.90;;;;;;4950826;28;20483;-79
2021/12/08 00:45:39;;;;;;;2.50;2.00;;;1.80;99.90;;;;;;4965967;28;20396;-80
2021/12/08 00:48:50;;;;;;;2.20;1.80;;;1.70;99.90;;;;;;4965444;28;20889;-80
2021/12/08 00:54:55;;;;;;;2.57;2.37;;;1.90;99.90;;;;;;5005210;28;20474;-80
2021/12/08 00:57:39;;;;;;;1.60;1.50;;;1.50;99.90;;;;;;5004040;28;20396;-80
2021/12/08 01:00:28;;;;;;;6.30;2.60;;;1.50;99.90;;;;;;5007126;28;20517;-79
2021/12/08 01:03:32;;;;;;;3.30;2.90;;;1.40;99.90;;;;;;5020349;28;20396;-79
2021/12/08 01:06:10;;;;;;;1.90;1.80;;;1.40;99.90;;;;;;5002668;28;20432;-78
2021/12/08 01:09:01;;;;;;;12.07;3.20;;;1.50;99.90;;;;;;5001200;28;20892;-79
2021/12/08 01:14:54;;;;;;;5.80;2.00;;;1.50;99.90;;;;;;5036575;28;20425;-78
2021/12/08 01:20:56;;;;;;;4.50;2.77;;;1.30;99.90;;;;;;5034712;28;20455;-78
2021/12/08 01:23:22;;;;;;;5.20;2.17;;;1.30;99.90;;;;;;5020619;28;20800;-78
2021/12/08 01:29:07;;;;;;;3.97;2.50;;;1.50;99.90;;;;;;4999826;28;20408;-78
2021/12/08 01:31:57;;;;;;;2.90;2.67;;;1.70;99.90;;;;;;4963533;28;20480;-78
2021/12/08 01:37:40;;;;;;;3.23;3.00;;;1.50;99.90;;;;;;4979525;28;20463;-79
2021/12/08 01:40:43;;;;;;;6.40;3.03;;;1.60;99.90;;;;;;4978223;28;20458;-78
2021/12/08 01:43:43;;;;;;;3.63;3.33;;;1.70;99.90;;;;;;4963639;28;20420;-78
2021/12/08 01:46:13;;;;;;;5.67;3.87;;;1.80;99.90;;;;;;4962331;28;20442;-79
2021/12/08 01:49:03;;;;;;;13.43;4.03;;;1.60;99.90;;;;;;4947997;29;20411;-79
2021/12/08 01:51:59;;;;;;;6.80;4.60;;;1.60;99.90;;;;;;4919261;29;20411;-79
2021/12/08 01:54:39;;;;;;;6.47;2.77;;;1.60;99.90;;;;;;4948020;29;20426;-79
2021/12/08 02:00:22;;;;;;;3.20;3.00;;;1.70;99.90;;;;;;4925888;29;20448;-80
2021/12/08 02:03:00;;;;;;;5.47;2.80;;;1.70;99.90;;;;;;4925822;29;20390;-79
2021/12/08 02:05:48;;;;;;;4.83;4.47;;;1.60;99.90;;;;;;4926069;29;20391;-79
2021/12/08 02:08:38;;;;;;;4.93;3.73;;;1.80;99.90;;;;;;4926357;29;20711;-79
2021/12/08 02:11:23;;;;;;;3.43;2.57;;;1.90;99.90;;;;;;4996013;28;20384;-79
2021/12/08 02:14:09;;;;;;;4.43;4.03;;;2.00;99.90;;;;;;5002684;28;20393;-79
2021/12/08 02:16:47;;;;;;;3.87;3.57;;;2.00;99.90;;;;;;4981731;28;20417;-79
2021/12/08 02:19:39;;;;;;;5.90;5.40;;;2.00;99.90;;;;;;4997112;28;20595;-78
2021/12/08 02:22:08;;;;;;;3.70;3.03;;;2.10;99.90;;;;;;4984933;28;20474;-76
2021/12/08 02:24:58;;;;;;;4.20;3.80;;;2.00;99.90;;;;;;4985092;28;20391;-76
2021/12/08 02:27:24;;;;;;;7.80;4.83;;;2.00;99.90;;;;;;5013613;28;20461;-77
2021/12/08 02:48:17;;;;;;;17.10;5.77;;;2.50;99.90;;;;;;5091199;28;20387;-79
2021/12/08 02:50:55;;;;;;;13.25;4.30;;;2.50;99.90;;;;;;5086117;28;20727;-79
2021/12/08 02:53:39;;;;;;;6.70;4.80;;;2.40;99.90;;;;;;5082457;28;20210;-79
2021/12/08 02:56:27;;;;;;;10.02;6.25;;;2.40;99.90;;;;;;5064682;28;20442;-79
2021/12/08 03:02:10;;;;;;;5.33;4.80;;;2.70;99.90;;;;;;5067714;28;20368;-78
2021/12/08 03:05:07;;;;;;;5.00;3.57;;;2.70;99.90;;;;;;5047857;28;20406;-79
2021/12/08 03:08:04;;;;;;;3.73;3.30;;;2.80;99.90;;;;;;5041136;28;20465;-79
2021/12/08 03:10:45;;;;;;;4.10;3.23;;;2.80;99.90;;;;;;5023963;28;20419;-79
2021/12/08 03:13:13;;;;;;;4.50;4.10;;;2.70;99.90;;;;;;5026470;28;20399;-79
2021/12/08 03:15:58;;;;;;;11.03;4.33;;;2.70;99.90;;;;;;5040453;28;20404;-80
2021/12/08 03:18:31;;;;;;;11.63;4.50;;;2.70;99.90;;;;;;5025297;28;20436;-79
2021/12/08 03:20:57;;;;;;;8.23;3.73;;;2.60;99.90;;;;;;5010692;28;20508;-78
2021/12/08 03:23:49;;;;;;;6.90;4.30;;;2.80;99.90;;;;;;5029404;28;20488;-79
2021/12/08 03:26:32;;;;;;;5.67;4.27;;;2.70;99.90;;;;;;5021057;28;20471;-79
2021/12/08 03:29:16;;;;;;;2.80;2.33;;;2.90;99.90;;;;;;5019250;28;20411;-78
2021/12/08 03:32:06;;;;;;;11.50;4.90;;;2.70;99.90;;;;;;5050904;28;20427;-79
2021/12/08 03:34:51;;;;;;;8.80;4.00;;;2.90;99.90;;;;;;5043351;28;20443;-79
2021/12/08 03:37:23;;;;;;;4.30;3.90;;;2.80;99.90;;;;;;5031906;28;20417;-79
2021/12/08 03:46:16;;;;;;;4.43;3.77;;;2.50;99.90;;;;;;4980383;28;20389;-79
2021/12/08 03:48:48;;;;;;;3.83;3.43;;;2.50;99.90;;;;;;4965321;28;20800;-79
2021/12/08 03:51:34;;;;;;;5.10;3.73;;;2.40;99.90;;;;;;4966643;28;20391;-79
2021/12/08 03:54:31;;;;;;;6.10;4.37;;;2.50;99.90;;;;;;4966884;28;20408;-79
2021/12/08 04:02:57;;;;;;;4.20;3.90;;;2.30;99.90;;;;;;4929053;29;20900;-79
2021/12/08 04:05:51;;;;;;;3.57;3.20;;;2.50;99.90;;;;;;4931378;29;20491;-79
2021/12/08 04:08:55;;;;;;;6.30;4.17;;;2.40;99.90;;;;;;4960993;28;20397;-79
2021/12/08 04:11:41;;;;;;;3.37;3.07;;;2.40;99.90;;;;;;4960507;29;20829;-79
2021/12/08 04:14:35;;;;;;;2.10;1.93;;;2.40;99.90;;;;;;4976524;28;20468;-79
2021/12/08 04:17:50;;;;;;;4.20;2.43;;;2.40;99.90;;;;;;4963880;28;20445;-79
2021/12/08 04:26:34;;;;;;;4.43;3.40;;;2.40;99.90;;;;;;5005264;28;20424;-79
2021/12/08 04:29:31;;;;;;;7.13;3.60;;;2.50;99.90;;;;;;5019048;28;20446;-79
2021/12/08 04:32:15;;;;;;;5.23;3.80;;;2.40;99.90;;;;;;5019617;28;20363;-79
2021/12/08 04:35:15;;;;;;;3.40;3.10;;;2.50;99.90;;;;;;5018938;28;20436;-79
2021/12/08 04:41:14;;;;;;;11.90;3.13;;;2.40;99.90;;;;;;5018289;28;20792;-79
2021/12/08 04:44:07;;;;;;;4.80;3.40;;;2.30;99.90;;;;;;5049932;28;20420;-79
2021/12/08 04:47:17;;;;;;;3.20;2.90;;;2.40;99.90;;;;;;5071666;28;20507;-79
2021/12/08 04:50:21;;;;;;;3.67;3.37;;;2.30;99.90;;;;;;5033889;28;20756;-79
2021/12/08 05:02:34;;;;;;;3.20;2.87;;;2.50;99.90;;;;;;5022890;28;20429;-79
2021/12/08 05:05:12;;;;;;;6.60;5.80;;;2.40;99.90;;;;;;5030473;28;20420;-79
2021/12/08 05:08:16;;;;;;;2.90;2.60;;;2.50;99.90;;;;;;5003060;28;20406;-79
2021/12/08 05:11:23;;;;;;;3.83;3.00;;;2.50;99.90;;;;;;4989777;28;20387;-79
2021/12/08 05:14:10;;;;;;;4.23;3.50;;;2.40;99.90;;;;;;4966385;28;20388;-79
2021/12/08 05:16:57;;;;;;;3.90;2.87;;;2.60;99.90;;;;;;4981762;28;20395;-79
2021/12/08 05:19:55;;;;;;;4.40;3.23;;;2.50;99.90;;;;;;4982159;28;20409;-79
2021/12/08 05:22:30;;;;;;;4.30;3.20;;;2.60;99.90;;;;;;4952190;28;20470;-79
2021/12/08 05:25:18;;;;;;;4.73;4.07;;;2.50;99.90;;;;;;4951308;28;20400;-79
2021/12/08 05:28:00;;;;;;;2.83;2.53;;;2.40;99.90;;;;;;4966532;28;20548;-79
2021/12/08 05:30:48;;;;;;;4.70;4.40;;;2.50;99.90;;;;;;4952305;28;20695;-79
2021/12/08 05:33:33;;;;;;;3.87;3.17;;;2.50;99.90;;;;;;4991279;28;20412;-78
2021/12/08 05:36:14;;;;;;;4.63;3.90;;;2.50;99.90;;;;;;5007772;28;20819;-79
2021/12/08 05:47:44;;;;;;;4.73;3.63;;;2.40;99.90;;;;;;5067772;28;20401;-79
2021/12/08 05:59:53;;;;;;;10.70;6.30;;;2.20;99.90;;;;;;5081062;28;20426;-79
2021/12/08 06:02:57;;;;;;;6.83;4.60;;;2.40;99.90;;;;;;5050549;28;20168;-79
2021/12/08 06:05:50;;;;;;;3.60;2.87;;;2.30;99.90;;;;;;5081554;28;20920;-79
2021/12/08 06:12:09;;;;;;;8.50;4.43;;;2.10;99.90;;;;;;5086888;28;20421;-78
2021/12/08 06:14:38;;;;;;;6.63;4.30;;;2.10;99.90;;;;;;5053390;28;20378;-79
2021/12/08 06:21:00;;;;;;;7.17;4.63;;;2.00;99.90;;;;;;5073462;28;20423;-79
2021/12/08 06:23:59;;;;;;;2.37;2.23;;;1.90;99.90;;;;;;5071506;28;20401;-79
2021/12/08 06:26:26;;;;;;;3.37;3.07;;;2.00;99.90;;;;;;5066729;28;20376;-79
2021/12/08 06:29:11;;;;;;;4.27;3.50;;;2.00;99.90;;;;;;5082495;28;20372;-79
2021/12/08 06:34:39;;;;;;;8.03;3.17;;;2.20;99.90;;;;;;5069680;28;20437;-79
2021/12/08 06:43:37;;;;;;;5.00;4.50;;;2.30;99.90;;;;;;5069065;28;20447;-78
2021/12/08 06:49:39;;;;;;;4.93;3.87;;;2.10;99.90;;;;;;5077753;28;20871;-80
2021/12/08 06:58:36;;;;;;;4.73;3.97;;;2.00;99.90;;;;;;5062412;28;20457;-79
2021/12/08 07:04:54;;;;;;;6.47;4.07;;;2.10;99.90;;;;;;5032436;28;20475;-80
2021/12/08 07:07:54;;;;;;;4.53;3.07;;;2.10;99.90;;;;;;5030359;28;20419;-79
2021/12/08 07:10:41;;;;;;;5.23;4.73;;;2.30;99.90;;;;;;5047530;28;20509;-79
2021/12/08 07:19:27;;;;;;;6.13;4.70;;;2.20;99.90;;;;;;5052123;28;20457;-79
2021/12/08 07:22:21;;;;;;;5.67;4.80;;;2.00;99.90;;;;;;5026900;28;20452;-78
2021/12/08 07:25:08;;;;;;;4.73;4.33;;;1.90;99.90;;;;;;5079957;28;20512;-79
2021/12/08 07:28:17;;;;;;;4.77;4.27;;;2.20;99.90;;;;;;5029501;28;20482;-78
2021/12/08 07:30:48;;;;;;;5.57;4.40;;;1.90;99.90;;;;;;5074499;28;20422;-78
2021/12/08 07:36:41;;;;;;;5.17;4.30;;;2.10;99.90;;;;;;5072696;28;20585;-81
2021/12/08 07:39:14;;;;;;;13.33;4.13;;;2.10;99.90;;;;;;5085988;28;20436;-81
2021/12/08 07:41:46;;;;;;;6.27;4.93;;;2.00;99.90;;;;;;5072224;28;20524;-80
2021/12/08 07:44:40;;;;;;;5.13;4.60;;;2.10;99.90;;;;;;5085830;28;20420;-80
2021/12/08 07:47:27;;;;;;;6.23;3.80;;;2.00;99.90;;;;;;5086310;28;20419;-80
2021/12/08 07:50:10;;;;;;;6.77;4.57;;;2.10;99.90;;;;;;5091287;28;20392;-81
2021/12/08 07:52:57;;;;;;;8.33;5.20;;;2.00;99.90;;;;;;5093354;28;20409;-80
2021/12/08 07:58:39;;;;;;;5.07;4.53;;;1.90;99.90;;;;;;5092017;28;20437;-80
2021/12/08 08:04:59;;;;;;;3.63;3.30;;;2.00;99.90;;;;;;5094832;28;20372;-80
2021/12/08 08:13:18;;;;;;;5.57;4.27;;;2.20;99.90;;;;;;5071598;28;20476;-82
2021/12/08 08:19:26;;;;;;;7.10;4.33;;;1.90;99.90;;;;;;5078472;28;20472;-81
2021/12/08 08:22:06;;;;;;;4.40;3.73;;;1.90;99.90;;;;;;5082443;28;20472;-81
2021/12/08 08:27:52;;;;;;;12.43;2.67;;;1.90;99.90;;;;;;5078261;28;20441;-81
2021/12/08 08:30:22;;;;;;;7.33;3.83;;;2.00;99.90;;;;;;5077468;28;20414;-81
2021/12/08 08:33:24;;;;;;;6.67;4.57;;;2.10;99.90;;;;;;5077219;28;20404;-81
2021/12/08 08:39:16;;;;;;;13.83;6.60;;;2.20;99.90;;;;;;5057071;28;20775;-81
2021/12/08 08:42:06;;;;;;;9.90;4.40;;;2.40;99.90;;;;;;5075362;28;20764;-81
2021/12/08 08:44:41;;;;;;;11.10;4.93;;;2.20;99.90;;;;;;5081381;28;20447;-82
2021/12/08 08:47:53;;;;;;;8.63;5.23;;;2.40;99.90;;;;;;5079413;28;20433;-80
2021/12/08 08:50:50;;;;;;;6.13;5.53;;;2.30;99.90;;;;;;5080190;28;20404;-82
2021/12/08 08:59:54;;;;;;;5.43;4.37;;;2.30;99.90;;;;;;5079511;28;20405;-82
2021/12/08 09:02:29;;;;;;;7.20;4.53;;;2.30;99.90;;;;;;5076650;28;20482;-81
2021/12/08 09:11:06;;;;;;;8.23;5.30;;;2.20;99.90;;;;;;5069153;28;20787;-80
2021/12/08 09:17:06;;;;;;;8.43;4.10;;;2.00;99.90;;;;;;5065660;28;20407;-79
2021/12/08 09:19:55;;;;;;;9.50;5.93;;;2.20;99.90;;;;;;5011919;28;20463;-79
2021/12/08 09:22:42;;;;;;;11.30;5.50;;;2.30;99.90;;;;;;5010447;28;20494;-79
2021/12/08 09:25:58;;;;;;;6.87;5.70;;;2.50;99.90;;;;;;5030259;28;20559;-80
2021/12/08 09:28:38;;;;;;;11.40;6.30;;;2.60;99.90;;;;;;5026853;28;20517;-79
2021/12/08 09:31:38;;;;;;;7.90;5.23;;;2.50;99.90;;;;;;5008307;28;20400;-79
2021/12/08 09:34:42;;;;;;;6.83;4.97;;;2.50;99.90;;;;;;5010626;28;20488;-79
2021/12/08 09:37:40;;;;;;;7.27;5.30;;;2.60;99.90;;;;;;5014695;28;20417;-79
2021/12/08 09:41:03;;;;;;;7.10;5.80;;;2.70;99.90;;;;;;5016016;28;20452;-79
2021/12/08 09:43:51;;;;;;;10.50;5.30;;;2.70;99.90;;;;;;5018873;28;20435;-79
2021/12/08 09:46:38;;;;;;;7.30;5.37;;;2.50;99.90;;;;;;5032722;28;20438;-80
2021/12/08 09:49:06;;;;;;;10.70;6.00;;;2.60;99.90;;;;;;5038324;28;20435;-82
2021/12/08 09:52:05;;;;;;;13.00;7.03;;;2.60;99.90;;;;;;5068637;28;20472;-80
2021/12/08 09:57:29;;;;;;;11.68;8.88;;;2.60;99.90;;;;;;5078037;28;20479;-81
2021/12/08 10:06:41;;;;;;;7.03;4.43;;;2.60;99.90;;;;;;5085559;28;20486;-81
2021/12/08 10:09:32;;;;;;;10.57;4.60;;;2.80;99.90;;;;;;5083708;28;20426;-82
2021/12/08 10:12:12;;;;;;;7.70;5.17;;;2.70;99.90;;;;;;5058980;28;20425;-81
2021/12/08 10:15:09;;;;;;;8.07;4.70;;;2.70;99.90;;;;;;5082294;28;20413;-79
2021/12/08 10:18:06;;;;;;;9.87;6.57;;;2.90;99.90;;;;;;5084688;28;20404;-79
2021/12/08 10:20:36;;;;;;;8.83;5.70;;;2.90;99.90;;;;;;5082891;28;20438;-79
2021/12/08 10:23:47;;;;;;;8.40;6.53;;;3.10;99.90;;;;;;5078801;28;20449;-80
2021/12/08 10:26:17;;;;;;;4.90;4.33;;;2.80;99.90;;;;;;5081723;28;20524;-80
2021/12/08 10:32:26;;;;;;;10.30;7.10;;;3.10;99.90;;;;;;5081762;28;20878;-79
2021/12/08 10:35:04;;;;;;;7.83;5.40;;;3.10;99.90;;;;;;5059089;28;20190;-79
2021/12/08 10:37:31;;;;;;;7.53;5.30;;;3.20;99.90;;;;;;5010178;28;20421;-79
2021/12/08 10:40:20;;;;;;;4.50;4.10;;;3.10;99.90;;;;;;5024589;28;20445;-81
2021/12/08 10:43:29;;;;;;;5.53;4.90;;;3.00;99.90;;;;;;5027529;28;20394;-79
2021/12/08 10:46:19;;;;;;;7.77;4.83;;;2.90;99.90;;;;;;5039253;28;20910;-79
2021/12/08 10:49:09;;;;;;;15.80;6.60;;;3.00;99.90;;;;;;4983336;28;20405;-80
2021/12/08 10:55:11;;;;;;;6.77;4.70;;;3.10;99.90;;;;;;4999792;28;20407;-79
2021/12/08 10:58:04;;;;;;;6.43;5.83;;;3.20;99.90;;;;;;4999428;28;20416;-80
2021/12/08 11:00:48;;;;;;;7.00;4.40;;;2.90;99.90;;;;;;4977968;28;20454;-79
2021/12/08 11:03:26;;;;;;;10.97;6.63;;;3.00;99.90;;;;;;4984830;28;20418;-78
2021/12/08 11:09:37;;;;;;;6.03;4.87;;;3.10;99.90;;;;;;5027725;28;20916;-80
2021/12/08 11:15:21;;;;;;;10.33;9.03;;;2.90;99.90;;;;;;5038925;28;20841;-80
2021/12/08 11:18:16;;;;;;;15.03;7.20;;;3.00;99.90;;;;;;5023356;28;20436;-79
2021/12/08 11:20:49;;;;;;;9.53;5.13;;;2.90;99.90;;;;;;5078685;28;20522;-79
2021/12/08 11:26:48;;;;;;;7.13;4.37;;;2.80;99.90;;;;;;5046360;28;20390;-80
2021/12/08 11:38:41;;;;;;;9.50;5.50;;;2.90;99.90;;;;;;5039338;28;20458;-79
2021/12/08 11:41:39;;;;;;;8.47;4.47;;;3.00;99.90;;;;;;5019373;28;20450;-79
2021/12/08 11:44:16;;;;;;;5.90;5.40;;;3.20;99.90;;;;;;5033971;28;20708;-79
2021/12/08 11:47:00;;;;;;;15.50;5.73;;;3.10;99.90;;;;;;5021709;28;20406;-78
2021/12/08 11:49:40;;;;;;;12.97;6.03;;;3.20;99.90;;;;;;5022114;28;20441;-79
2021/12/08 11:52:36;;;;;;;11.70;5.13;;;3.30;99.90;;;;;;5018443;28;20503;-80
2021/12/08 11:55:40;;;;;;;14.60;6.10;;;3.20;99.90;;;;;;5012012;28;20435;-80
2021/12/08 11:58:19;;;;;;;5.30;4.80;;;3.20;99.90;;;;;;5080488;28;20412;-79
2021/12/08 12:04:02;;;;;;;7.27;4.50;;;3.20;99.90;;;;;;5075195;28;20897;-78
2021/12/08 12:07:04;;;;;;;7.53;5.77;;;3.40;99.90;;;;;;5036166;28;20415;-78
2021/12/08 12:09:55;;;;;;;12.33;5.63;;;3.50;99.90;;;;;;5071182;28;20487;-79
2021/12/08 12:18:34;;;;;;;8.70;5.43;;;3.20;99.90;;;;;;5064004;28;20463;-79
2021/12/08 12:21:31;;;;;;;8.93;6.13;;;3.40;99.90;;;;;;5082615;28;20465;-79
2021/12/08 12:24:47;;;;;;;8.80;6.47;;;3.30;99.90;;;;;;5037224;28;20421;-79
2021/12/08 12:31:03;;;;;;;10.57;6.57;;;3.50;99.90;;;;;;5010325;28;20458;-79
2021/12/08 12:33:57;;;;;;;9.03;5.70;;;3.50;99.90;;;;;;5023969;28;20899;-78
2021/12/08 12:37:00;;;;;;;9.57;5.93;;;3.60;99.90;;;;;;5022666;28;20450;-79
2021/12/08 12:40:17;;;;;;;8.27;5.00;;;3.50;99.90;;;;;;5024056;28;20474;-79
2021/12/08 12:42:57;;;;;;;6.90;5.50;;;3.40;99.90;;;;;;5020915;28;20406;-79
2021/12/08 12:46:18;;;;;;;7.90;5.00;;;3.60;99.90;;;;;;5003368;28;20438;-79
2021/12/08 12:49:23;;;;;;;8.17;5.37;;;3.30;99.90;;;;;;5036871;28;20428;-79
2021/12/08 12:52:09;;;;;;;7.00;6.07;;;3.20;99.90;;;;;;4992625;28;20526;-79
2021/12/08 12:54:48;;;;;;;9.10;6.13;;;3.20;99.90;;;;;;4976019;28;20414;-79
2021/12/08 12:58:20;;;;;;;9.73;5.17;;;3.30;99.90;;;;;;4978200;28;20878;-79
2021/12/08 13:07:26;;;;;;;7.87;5.87;;;3.10;99.90;;;;;;5015595;28;20468;-79
2021/12/08 13:09:57;;;;;;;5.67;5.13;;;3.00;99.90;;;;;;5013318;28;20453;-79
2021/12/08 13:12:43;;;;;;;7.47;5.87;;;3.10;99.90;;;;;;4987795;28;20502;-79
2021/12/08 13:15:46;;;;;;;11.50;5.67;;;3.20;99.90;;;;;;5017840;28;20538;-79
2021/12/08 13:18:52;;;;;;;7.80;5.23;;;3.30;99.90;;;;;;4992426;28;20422;-79
2021/12/08 13:22:00;;;;;;;11.87;9.30;;;3.40;99.90;;;;;;4984821;28;20574;-79
2021/12/08 13:24:50;;;;;;;8.53;6.70;;;3.30;99.90;;;;;;5031790;28;20463;-79
2021/12/08 13:27:49;;;;;;;5.10;4.70;;;3.20;99.90;;;;;;5003768;28;20532;-79
2021/12/08 13:30:34;;;;;;;8.50;6.00;;;3.10;99.90;;;;;;5003701;28;20473;-79
2021/12/08 13:33:33;;;;;;;8.47;6.13;;;3.10;99.90;;;;;;5040441;28;20759;-79
2021/12/08 13:36:33;;;;;;;11.90;7.67;;;3.10;99.90;;;;;;5020801;28;20406;-78
2021/12/08 13:39:12;;;;;;;10.30;7.40;;;3.10;99.90;;;;;;5010415;28;20470;-79
2021/12/08 13:42:12;;;;;;;12.20;6.50;;;3.10;99.90;;;;;;5017588;28;20446;-79
2021/12/08 13:44:57;;;;;;;8.10;5.73;;;3.10;99.90;;;;;;5040568;28;20405;-79
2021/12/08 13:47:34;;;;;;;9.13;5.00;;;3.10;99.90;;;;;;5021442;28;20441;-79
2021/12/08 14:00:16;;;;;;;11.33;6.27;;;3.20;99.90;;;;;;5047960;28;20426;-79
2021/12/08 14:02:48;;;;;;;10.10;5.37;;;3.40;99.90;;;;;;5058014;28;20504;-79
2021/12/08 14:09:02;;;;;;;5.33;4.93;;;3.20;99.90;;;;;;5016834;28;20949;-79
2021/12/08 14:11:58;;;;;;;7.27;5.40;;;3.40;99.90;;;;;;5017230;28;20441;-79
2021/12/08 14:15:01;;;;;;;9.40;6.50;;;3.20;99.90;;;;;;4989546;28;20590;-79
2021/12/08 14:20:51;;;;;;;7.83;6.20;;;3.40;99.90;;;;;;5021583;28;21010;-78
2021/12/08 14:27:13;;;;;;;8.50;6.23;;;3.40;99.90;;;;;;4962388;28;20445;-80
2021/12/08 14:30:19;;;;;;;7.57;6.23;;;3.40;99.90;;;;;;4950767;29;20492;-79
2021/12/08 14:33:23;;;;;;;43.27;7.77;;;3.50;99.90;;;;;;4952778;28;20779;-79
2021/12/08 14:36:08;;;;;;;6.27;5.67;;;3.40;99.90;;;;;;4947292;29;20405;-79
2021/12/08 14:38:54;;;;;;;8.97;6.03;;;3.50;99.90;;;;;;4975196;28;20449;-79
2021/12/08 14:41:39;;;;;;;6.97;5.50;;;3.40;99.90;;;;;;5014072;28;20482;-78
2021/12/08 14:47:32;;;;;;;9.17;4.97;;;3.60;99.90;;;;;;5022101;28;20415;-79
2021/12/08 14:53:05;;;;;;;5.83;5.00;;;3.60;99.90;;;;;;4994618;28;20422;-80
2021/12/08 14:58:40;;;;;;;9.43;4.80;;;3.30;99.90;;;;;;5015691;28;20839;-80
2021/12/08 15:01:24;;;;;;;6.50;5.30;;;3.20;99.90;;;;;;5019160;28;20528;-80
2021/12/08 15:07:15;;;;;;;5.27;4.20;;;3.00;99.90;;;;;;5031851;28;20406;-80
2021/12/08 15:09:40;;;;;;;6.03;5.30;;;3.00;99.90;;;;;;5047245;28;20506;-80
2021/12/08 15:12:36;;;;;;;7.57;4.87;;;2.90;99.90;;;;;;5037561;28;20411;-80
2021/12/08 15:15:45;;;;;;;7.23;4.23;;;3.00;99.90;;;;;;5051108;28;20201;-81
2021/12/08 15:18:13;;;;;;;7.47;5.93;;;3.00;99.90;;;;;;5045265;28;20394;-80
2021/12/08 15:21:10;;;;;;;5.53;5.07;;;3.00;99.90;;;;;;5042060;28;20471;-81
2021/12/08 15:24:01;;;;;;;6.43;5.90;;;2.90;99.90;;;;;;5036099;28;20463;-80
2021/12/08 15:26:28;;;;;;;6.20;5.33;;;2.90;99.90;;;;;;5022458;28;20440;-81
2021/12/08 15:35:25;;;;;;;7.37;6.40;;;2.80;99.90;;;;;;5068956;28;20413;-81
2021/12/08 15:41:09;;;;;;;15.27;6.27;;;2.90;99.90;;;;;;5081263;28;20468;-81
2021/12/08 15:47:16;;;;;;;8.30;6.67;;;2.80;99.90;;;;;;5065032;28;20398;-81
2021/12/08 15:49:54;;;;;;;8.03;5.53;;;2.80;99.90;;;;;;5085570;28;20392;-81
2021/12/08 15:52:35;;;;;;;11.37;5.97;;;3.00;99.90;;;;;;5066927;28;20407;-80
2021/12/08 15:55:34;;;;;;;8.13;6.53;;;3.10;99.90;;;;;;5060998;28;20423;-81
2021/12/08 16:07:35;;;;;;;10.27;8.30;;;3.20;99.90;;;;;;5074038;28;20755;-81
2021/12/08 16:10:35;;;;;;;10.10;7.20;;;3.20;99.90;;;;;;5082513;28;20435;-81
2021/12/08 16:13:05;;;;;;;7.67;6.93;;;3.30;99.90;;;;;;5080234;28;20461;-80
2021/12/08 16:15:49;;;;;;;8.03;6.10;;;3.10;99.90;;;;;;5058812;28;20409;-81
2021/12/08 16:18:33;;;;;;;9.50;6.93;;;2.90;99.90;;;;;;5057490;28;20420;-81
2021/12/08 16:21:12;;;;;;;8.87;7.27;;;3.00;99.90;;;;;;5061678;28;20503;-82
2021/12/08 16:27:02;;;;;;;5.77;5.13;;;2.90;99.90;;;;;;5052428;28;20508;-81
2021/12/08 16:33:09;;;;;;;7.77;6.70;;;2.70;99.90;;;;;;5059541;28;20904;-81
2021/12/08 16:35:47;;;;;;;7.87;6.30;;;2.60;99.90;;;;;;5040884;28;20418;-81
2021/12/08 16:38:34;;;;;;;8.10;7.30;;;2.50;99.90;;;;;;5042682;28;20516;-81
2021/12/08 16:47:18;;;;;;;10.63;7.23;;;2.40;99.90;;;;;;5064075;28;20416;-80
2021/12/08 16:50:10;;;;;;;15.30;6.70;;;2.40;99.90;;;;;;5079983;28;20411;-81
2021/12/08 16:53:01;;;;;;;7.53;6.73;;;2.50;99.90;;;;;;5080185;28;20424;-79
2021/12/08 16:55:29;;;;;;;16.07;9.27;;;2.50;99.90;;;;;;5062757;28;20503;-82
2021/12/08 16:57:57;;;;;;;9.27;6.70;;;2.50;99.90;;;;;;5058768;28;20461;-81
2021/12/08 17:00:29;;;;;;;11.13;6.37;;;2.50;99.90;;;;;;5068798;28;20468;-81
2021/12/08 17:03:11;;;;;;;7.07;6.27;;;2.60;99.90;;;;;;5057145;28;20440;-82
2021/12/08 17:06:06;;;;;;;8.77;7.43;;;2.40;99.90;;;;;;5082966;28;20475;-80
2021/12/08 17:09:05;;;;;;;12.67;9.10;;;2.30;99.90;;;;;;5065075;28;20438;-81
2021/12/08 17:14:52;;;;;;;12.37;6.97;;;2.30;99.90;;;;;;5082287;28;20422;-81
2021/12/08 17:17:30;;;;;;;7.27;6.47;;;2.20;99.90;;;;;;5076475;28;20453;-82
2021/12/08 17:20:14;;;;;;;9.50;7.83;;;2.10;99.90;;;;;;5076699;28;20463;-82
2021/12/08 17:23:11;;;;;;;14.77;10.10;;;2.10;99.90;;;;;;5071884;28;20457;-81
2021/12/08 17:25:55;;;;;;;8.43;7.47;;;2.00;99.90;;;;;;5080808;28;20437;-81
2021/12/08 17:28:35;;;;;;;11.73;7.10;;;2.00;99.90;;;;;;5082161;28;20444;-81
2021/12/08 17:34:17;;;;;;;8.00;6.53;;;1.90;99.90;;;;;;5076906;28;20582;-81
2021/12/08 17:37:14;;;;;;;13.53;9.07;;;1.90;99.90;;;;;;5080919;28;20881;-80
2021/12/08 17:42:50;;;;;;;18.77;8.90;;;1.80;99.90;;;;;;5074338;28;20445;-80
2021/12/08 17:46:03;;;;;;;14.67;8.50;;;1.90;99.90;;;;;;5081431;28;20488;-78
2021/12/08 17:48:44;;;;;;;11.03;8.03;;;1.80;99.90;;;;;;5068623;28;20401;-79
2021/12/08 17:51:41;;;;;;;13.00;7.60;;;1.80;99.90;;;;;;5041458;28;20389;-79
2021/12/08 17:54:21;;;;;;;12.50;7.33;;;1.70;99.90;;;;;;5045538;28;20489;-80
2021/12/08 17:59:59;;;;;;;9.73;8.60;;;1.80;99.90;;;;;;4989217;28;20981;-79
2021/12/08 18:03:01;;;;;;;9.10;6.80;;;1.80;99.90;;;;;;5002613;28;20912;-78
2021/12/08 18:05:51;;;;;;;8.40;5.93;;;1.80;99.90;;;;;;4988864;28;20486;-79
2021/12/08 18:08:54;;;;;;;7.33;6.17;;;2.00;99.90;;;;;;5003326;28;20392;-79
2021/12/08 18:11:20;;;;;;;9.90;6.40;;;1.90;99.90;;;;;;4986225;28;20391;-79
2021/12/08 18:14:08;;;;;;;6.87;6.10;;;1.90;99.90;;;;;;4986471;28;20837;-79
2021/12/08 18:16:47;;;;;;;12.10;7.97;;;2.00;99.90;;;;;;4986265;28;20454;-79
2021/12/08 18:19:31;;;;;;;11.80;9.30;;;2.00;99.90;;;;;;4967092;28;20424;-79
2021/12/08 18:22:15;;;;;;;9.70;6.73;;;1.80;99.90;;;;;;4999332;28;20507;-78
2021/12/08 18:24:59;;;;;;;7.13;6.10;;;1.80;99.90;;;;;;4985624;28;20504;-78
2021/12/08 18:31:11;;;;;;;8.43;7.20;;;1.80;99.90;;;;;;5039173;28;20402;-78
2021/12/08 18:34:19;;;;;;;7.83;6.50;;;1.90;99.90;;;;;;5022571;28;20373;-79
2021/12/08 18:37:04;;;;;;;8.60;6.97;;;2.00;99.90;;;;;;5081354;28;20398;-79
2021/12/08 18:39:55;;;;;;;16.90;8.87;;;2.10;99.90;;;;;;5041280;28;20550;-77
2021/12/08 18:45:48;;;;;;;7.57;5.67;;;2.10;99.90;;;;;;5042314;28;20371;-79
2021/12/08 18:48:29;;;;;;;8.83;7.93;;;2.10;99.90;;;;;;5024790;28;20394;-79
2021/12/08 18:51:28;;;;;;;15.87;8.30;;;2.20;99.90;;;;;;5041531;28;20366;-79
2021/12/08 18:53:57;;;;;;;12.40;9.70;;;2.30;99.90;;;;;;5010007;28;20394;-79
2021/12/08 18:56:36;;;;;;;11.93;7.90;;;2.50;99.90;;;;;;5025925;28;20386;-78
2021/12/08 18:59:03;;;;;;;11.50;9.60;;;2.70;99.90;;;;;;5007253;28;20424;-79
2021/12/08 19:05:09;;;;;;;13.23;10.90;;;3.00;99.90;;;;;;5022332;28;20394;-79
2021/12/08 19:07:56;;;;;;;14.70;9.97;;;3.00;99.90;;;;;;5021566;28;20394;-79
2021/12/08 19:10:37;;;;;;;13.80;10.30;;;3.20;99.90;;;;;;5018416;28;20506;-79
2021/12/08 19:13:27;;;;;;;13.53;9.97;;;3.20;99.90;;;;;;5007747;28;20414;-79
2021/12/08 19:15:58;;;;;;;15.37;8.93;;;3.20;99.90;;;;;;5005463;28;20364;-79
2021/12/08 19:18:57;;;;;;;10.23;9.07;;;3.20;99.90;;;;;;5005040;28;20994;-79
2021/12/08 19:33:58;;;;;;;15.23;9.43;;;3.20;99.90;;;;;;5008110;28;20379;-79
2021/12/08 19:36:36;;;;;;;11.10;8.70;;;3.30;99.90;;;;;;5006036;28;20383;-79
2021/12/08 19:42:46;;;;;;;12.90;8.77;;;3.10;99.90;;;;;;5013550;28;20609;-78
2021/12/08 19:45:20;;;;;;;12.60;8.00;;;3.20;99.90;;;;;;5056363;28;20563;-78
2021/12/08 19:48:08;;;;;;;11.43;7.20;;;3.30;99.90;;;;;;5036365;28;20415;-79
2021/12/08 19:53:56;;;;;;;10.57;7.80;;;3.30;99.90;;;;;;5058824;28;20369;-78
2021/12/08 19:56:47;;;;;;;13.07;8.63;;;3.30;99.90;;;;;;5036882;28;20485;-78
2021/12/08 19:59:56;;;;;;;9.20;7.53;;;3.30;99.90;;;;;;5058340;28;20402;-78
2021/12/08 20:02:22;;;;;;;11.07;7.30;;;3.30;99.90;;;;;;5043247;28;20429;-78
2021/12/08 20:05:09;;;;;;;6.90;6.33;;;3.40;99.90;;;;;;5017449;28;20394;-79
2021/12/08 20:07:57;;;;;;;10.40;7.80;;;3.40;99.90;;;;;;4997142;28;20515;-78
2021/12/08 20:10:53;;;;;;;10.77;8.37;;;3.40;99.90;;;;;;4983760;28;20390;-78
2021/12/08 20:19:23;;;;;;;19.87;9.70;;;3.00;99.90;;;;;;5007820;28;20512;-78
2021/12/08 20:31:36;;;;;;;14.97;10.50;;;3.10;99.90;;;;;;4978039;28;20473;-78
2021/12/08 20:34:17;;;;;;;11.33;9.70;;;2.80;99.90;;;;;;4967259;28;20409;-78
2021/12/08 20:39:46;;;;;;;10.90;9.03;;;3.00;99.90;;;;;;5038787;28;20444;-78